To NAV CANADA Home Page Login to a new session Search on AWWS site Feedback and Comments Disclaimer Vers la page française équivalente Tips FAQ What's new on the site To the Forecasts and Observations / NOTAM section To "File a Flight Plan" website Publications and other links Update of the User's profile FIC Telephone Numbers My Weather Data Folder Route Weather Data Regional Weather Data Local Weather Data To the Forecasts and Observations / NOTAM section
Request Generated 12/10/2016 at 16:34:22 UTC . Weather information available at that time is displayed.

METAR/TAF

KINGSTON/ON    

METAR CYGK 101600Z 30003KT 280V360 15SM FEW025 BKN100 BKN250 M06/M12
A3037 RMK CU2AC3CI2 SLP291=
METAR CYGK 101500Z 35004KT 15SM FEW025 SCT100 BKN240 M07/M11 A3038
RMK SC1AC3CI3 SC TR SLP294=
METAR CYGK 101400Z 35005KT 15SM FEW025 FEW090 BKN110 BKN250 M07/M11
A3037 RMK CU1AC1AC3CI1 SLP291=

TAF CYGK 101238Z 1013/1101 34005KT P6SM FEW120 TEMPO 1013/1023 BKN120
FM102300 09005KT P6SM BKN040 TEMPO 1023/1101 4SM -SHSN
RMK NXT FCST BY 102000Z=
Your time UTC time
Weather data provided by Environment Canada and NAV CANADA